sensor_id;sensor_type;location;lat;lon;timestamp;P1;durP1;ratioP1;P2;durP2;ratioP2
29776;SDS011;16677;52.224;7.484;2023-09-12T08:04:01;21.07;;;18.60;;
29776;SDS011;16677;52.224;7.484;2023-09-12T08:06:28;23.00;;;20.63;;
29776;SDS011;16677;52.224;7.484;2023-09-12T08:09:09;21.83;;;19.73;;
29776;SDS011;16677;52.224;7.484;2023-09-12T08:11:36;22.57;;;20.37;;
29776;SDS011;16677;52.224;7.484;2023-09-12T08:14:03;23.07;;;20.63;;
29776;SDS011;16677;52.224;7.484;2023-09-12T08:16:30;22.93;;;20.70;;
29776;SDS011;16677;52.224;7.484;2023-09-12T08:18:58;25.57;;;22.93;;
29776;SDS011;16677;52.224;7.484;2023-09-12T08:21:25;26.53;;;22.60;;
29776;SDS011;16677;52.224;7.484;2023-09-12T08:23:52;28.70;;;22.83;;
29776;SDS011;16677;52.224;7.484;2023-09-12T08:26:19;25.30;;;22.70;;
29776;SDS011;16677;52.224;7.484;2023-09-12T08:28:46;25.80;;;23.20;;
29776;SDS011;16677;52.224;7.484;2023-09-12T08:31:13;25.90;;;23.30;;
29776;SDS011;16677;52.224;7.484;2023-09-12T08:33:40;27.47;;;24.57;;
29776;SDS011;16677;52.224;7.484;2023-09-12T08:36:08;27.63;;;24.83;;
29776;SDS011;16677;52.224;7.484;2023-09-12T08:38:35;29.90;;;25.57;;
29776;SDS011;16677;52.224;7.484;2023-09-12T08:41:02;27.80;;;24.93;;
29776;SDS011;16677;52.224;7.484;2023-09-12T08:43:31;27.87;;;24.93;;
29776;SDS011;16677;52.224;7.484;2023-09-12T08:45:58;29.07;;;26.07;;
29776;SDS011;16677;52.224;7.484;2023-09-12T08:48:25;28.47;;;25.20;;
29776;SDS011;16677;52.224;7.484;2023-09-12T08:50:55;28.87;;;25.77;;
29776;SDS011;16677;52.224;7.484;2023-09-12T08:53:23;29.20;;;25.63;;
29776;SDS011;16677;52.224;7.484;2023-09-12T08:55:51;30.73;;;27.47;;
29776;SDS011;16677;52.224;7.484;2023-09-12T08:58:19;31.20;;;27.70;;
29776;SDS011;16677;52.224;7.484;2023-09-12T09:00:48;30.80;;;27.70;;
29776;SDS011;16677;52.224;7.484;2023-09-12T09:03:15;33.47;;;28.73;;
29776;SDS011;16677;52.224;7.484;2023-09-12T09:05:43;33.20;;;29.17;;
29776;SDS011;16677;52.224;7.484;2023-09-12T09:08:12;32.73;;;28.93;;
29776;SDS011;16677;52.224;7.484;2023-09-12T09:10:40;32.93;;;29.30;;
29776;SDS011;16677;52.224;7.484;2023-09-12T09:13:21;30.90;;;27.23;;
29776;SDS011;16677;52.224;7.484;2023-09-12T09:18:52;36.97;;;33.17;;
29776;SDS011;16677;52.224;7.484;2023-09-12T09:21:23;31.00;;;27.95;;
29776;SDS011;16677;52.224;7.484;2023-09-12T09:24:01;30.30;;;27.40;;
29776;SDS011;16677;52.224;7.484;2023-09-12T09:29:17;28.92;;;25.90;;
29776;SDS011;16677;52.224;7.484;2023-09-12T09:31:49;31.05;;;27.80;;
29776;SDS011;16677;52.224;7.484;2023-09-12T09:34:18;32.00;;;28.70;;
29776;SDS011;16677;52.224;7.484;2023-09-12T09:36:49;29.60;;;26.60;;
29776;SDS011;16677;52.224;7.484;2023-09-12T09:39:20;28.15;;;25.42;;
29776;SDS011;16677;52.224;7.484;2023-09-12T09:41:51;27.52;;;25.02;;
29776;SDS011;16677;52.224;7.484;2023-09-12T09:44:23;26.85;;;24.25;;
29776;SDS011;16677;52.224;7.484;2023-09-12T09:46:55;22.02;;;19.92;;
29776;SDS011;16677;52.224;7.484;2023-09-12T09:49:32;23.20;;;21.20;;
29776;SDS011;16677;52.224;7.484;2023-09-12T09:52:03;23.17;;;20.92;;
29776;SDS011;16677;52.224;7.484;2023-09-12T09:54:34;24.95;;;22.85;;
29776;SDS011;16677;52.224;7.484;2023-09-12T09:57:04;27.02;;;24.83;;
29776;SDS011;16677;52.224;7.484;2023-09-12T09:59:31;28.33;;;25.83;;
29776;SDS011;16677;52.224;7.484;2023-09-12T10:01:58;29.97;;;27.47;;
29776;SDS011;16677;52.224;7.484;2023-09-12T10:04:28;24.35;;;22.05;;
29776;SDS011;16677;52.224;7.484;2023-09-12T10:06:57;21.33;;;19.45;;
29776;SDS011;16677;52.224;7.484;2023-09-12T10:09:25;18.08;;;16.48;;
29776;SDS011;16677;52.224;7.484;2023-09-12T10:11:56;14.90;;;13.57;;
29776;SDS011;16677;52.224;7.484;2023-09-12T10:14:24;14.73;;;13.32;;
29776;SDS011;16677;52.224;7.484;2023-09-12T10:16:56;14.05;;;12.68;;
29776;SDS011;16677;52.224;7.484;2023-09-12T10:19:41;16.33;;;14.60;;
29776;SDS011;16677;52.224;7.484;2023-09-12T10:24:47;16.33;;;14.77;;
29776;SDS011;16677;52.224;7.484;2023-09-12T10:27:18;15.38;;;13.85;;
29776;SDS011;16677;52.224;7.484;2023-09-12T10:29:46;15.52;;;14.13;;
29776;SDS011;16677;52.224;7.484;2023-09-12T10:32:16;15.95;;;14.40;;
29776;SDS011;16677;52.224;7.484;2023-09-12T10:34:45;17.77;;;16.08;;
29776;SDS011;16677;52.224;7.484;2023-09-12T10:37:16;17.70;;;16.00;;
29776;SDS011;16677;52.224;7.484;2023-09-12T10:39:46;18.10;;;16.40;;
29776;SDS011;16677;52.224;7.484;2023-09-12T10:42:16;17.27;;;15.70;;
29776;SDS011;16677;52.224;7.484;2023-09-12T10:44:47;17.38;;;15.88;;
29776;SDS011;16677;52.224;7.484;2023-09-12T10:47:18;17.35;;;15.65;;
29776;SDS011;16677;52.224;7.484;2023-09-12T10:49:45;17.15;;;15.65;;
29776;SDS011;16677;52.224;7.484;2023-09-12T10:52:25;17.83;;;16.33;;
29776;SDS011;16677;52.224;7.484;2023-09-12T10:54:53;16.95;;;15.45;;
29776;SDS011;16677;52.224;7.484;2023-09-12T10:57:21;16.98;;;15.45;;
29776;SDS011;16677;52.224;7.484;2023-09-12T11:02:37;14.90;;;13.40;;
29776;SDS011;16677;52.224;7.484;2023-09-12T11:05:06;15.50;;;13.82;;
29776;SDS011;16677;52.224;7.484;2023-09-12T11:07:57;13.95;;;12.63;;
29776;SDS011;16677;52.224;7.484;2023-09-12T11:10:26;13.50;;;12.30;;
29776;SDS011;16677;52.224;7.484;2023-09-12T11:12:55;14.20;;;12.35;;
29776;SDS011;16677;52.224;7.484;2023-09-12T11:15:27;13.65;;;12.30;;
29776;SDS011;16677;52.224;7.484;2023-09-12T11:18:05;12.77;;;11.57;;
29776;SDS011;16677;52.224;7.484;2023-09-12T11:20:51;14.02;;;12.73;;
29776;SDS011;16677;52.224;7.484;2023-09-12T11:23:30;14.95;;;13.02;;
29776;SDS011;16677;52.224;7.484;2023-09-12T11:26:07;14.70;;;13.15;;
29776;SDS011;16677;52.224;7.484;2023-09-12T11:28:37;15.18;;;13.63;;
29776;SDS011;16677;52.224;7.484;2023-09-12T11:31:06;16.58;;;15.02;;
29776;SDS011;16677;52.224;7.484;2023-09-12T11:33:37;16.13;;;14.63;;
29776;SDS011;16677;52.224;7.484;2023-09-12T11:36:08;15.45;;;13.93;;
29776;SDS011;16677;52.224;7.484;2023-09-12T11:38:40;15.32;;;13.95;;
29776;SDS011;16677;52.224;7.484;2023-09-12T11:41:07;14.93;;;13.52;;
29776;SDS011;16677;52.224;7.484;2023-09-12T11:43:34;16.67;;;15.07;;
29776;SDS011;16677;52.224;7.484;2023-09-12T11:46:04;17.38;;;15.75;;
29776;SDS011;16677;52.224;7.484;2023-09-12T11:48:34;14.88;;;13.50;;
29776;SDS011;16677;52.224;7.484;2023-09-12T11:51:02;12.68;;;11.40;;
29776;SDS011;16677;52.224;7.484;2023-09-12T11:53:34;12.10;;;10.90;;
29776;SDS011;16677;52.224;7.484;2023-09-12T11:56:02;11.60;;;10.43;;
29776;SDS011;16677;52.224;7.484;2023-09-12T11:58:29;11.38;;;10.20;;
29776;SDS011;16677;52.224;7.484;2023-09-12T12:00:57;11.52;;;10.43;;
29776;SDS011;16677;52.224;7.484;2023-09-12T12:03:26;12.15;;;10.80;;
29776;SDS011;16677;52.224;7.484;2023-09-12T12:05:55;15.07;;;13.48;;
29776;SDS011;16677;52.224;7.484;2023-09-12T12:08:23;14.48;;;13.05;;
29776;SDS011;16677;52.224;7.484;2023-09-12T12:10:58;13.90;;;11.43;;
29776;SDS011;16677;52.224;7.484;2023-09-12T12:13:26;11.07;;;10.05;;
29776;SDS011;16677;52.224;7.484;2023-09-12T12:15:55;10.82;;;9.80;;
29776;SDS011;16677;52.224;7.484;2023-09-12T12:18:23;11.05;;;10.05;;
29776;SDS011;16677;52.224;7.484;2023-09-12T12:20:51;14.07;;;12.60;;
29776;SDS011;16677;52.224;7.484;2023-09-12T12:23:18;12.65;;;11.55;;
29776;SDS011;16677;52.224;7.484;2023-09-12T12:25:45;12.57;;;11.52;;
29776;SDS011;16677;52.224;7.484;2023-09-12T12:28:13;11.73;;;10.70;;
29776;SDS011;16677;52.224;7.484;2023-09-12T12:30:44;12.48;;;11.27;;
29776;SDS011;16677;52.224;7.484;2023-09-12T12:33:13;9.60;;;8.60;;
29776;SDS011;16677;52.224;7.484;2023-09-12T12:36:02;10.18;;;9.27;;
29776;SDS011;16677;52.224;7.484;2023-09-12T12:38:35;10.32;;;9.25;;
29776;SDS011;16677;52.224;7.484;2023-09-12T12:41:23;13.18;;;10.02;;
29776;SDS011;16677;52.224;7.484;2023-09-12T12:43:52;9.10;;;8.30;;
29776;SDS011;16677;52.224;7.484;2023-09-12T12:46:20;8.88;;;8.13;;
29776;SDS011;16677;52.224;7.484;2023-09-12T12:48:48;8.77;;;7.75;;
29776;SDS011;16677;52.224;7.484;2023-09-12T12:51:17;7.57;;;6.97;;
29776;SDS011;16677;52.224;7.484;2023-09-12T12:53:45;7.13;;;6.50;;
29776;SDS011;16677;52.224;7.484;2023-09-12T12:56:17;6.85;;;6.25;;
29776;SDS011;16677;52.224;7.484;2023-09-12T12:58:50;7.93;;;7.13;;
29776;SDS011;16677;52.224;7.484;2023-09-12T13:01:20;6.70;;;6.00;;
29776;SDS011;16677;52.224;7.484;2023-09-12T13:03:48;7.07;;;5.72;;
29776;SDS011;16677;52.224;7.484;2023-09-12T13:06:19;7.07;;;6.38;;
29776;SDS011;16677;52.224;7.484;2023-09-12T13:08:47;6.63;;;6.00;;
29776;SDS011;16677;52.224;7.484;2023-09-12T13:11:18;6.85;;;5.75;;
29776;SDS011;16677;52.224;7.484;2023-09-12T13:13:45;6.90;;;6.28;;
29776;SDS011;16677;52.224;7.484;2023-09-12T13:16:17;7.18;;;6.47;;
29776;SDS011;16677;52.224;7.484;2023-09-12T13:18:45;6.95;;;6.35;;
29776;SDS011;16677;52.224;7.484;2023-09-12T13:21:12;6.80;;;6.18;;
29776;SDS011;16677;52.224;7.484;2023-09-12T13:23:40;7.25;;;6.45;;
29776;SDS011;16677;52.224;7.484;2023-09-12T13:26:08;7.85;;;7.15;;
29776;SDS011;16677;52.224;7.484;2023-09-12T13:28:36;7.68;;;6.90;;
29776;SDS011;16677;52.224;7.484;2023-09-12T13:31:04;10.52;;;9.52;;
29776;SDS011;16677;52.224;7.484;2023-09-12T13:33:31;10.52;;;9.63;;
29776;SDS011;16677;52.224;7.484;2023-09-12T13:35:59;10.10;;;9.20;;
29776;SDS011;16677;52.224;7.484;2023-09-12T13:38:26;7.82;;;7.13;;
29776;SDS011;16677;52.224;7.484;2023-09-12T13:40:56;8.25;;;7.55;;
29776;SDS011;16677;52.224;7.484;2023-09-12T13:43:23;7.53;;;6.82;;
29776;SDS011;16677;52.224;7.484;2023-09-12T13:45:50;7.90;;;7.10;;
29776;SDS011;16677;52.224;7.484;2023-09-12T13:48:17;6.97;;;6.38;;
29776;SDS011;16677;52.224;7.484;2023-09-12T13:50:48;6.93;;;6.25;;
29776;SDS011;16677;52.224;7.484;2023-09-12T13:53:17;7.70;;;7.00;;
29776;SDS011;16677;52.224;7.484;2023-09-12T13:55:46;7.78;;;6.97;;
29776;SDS011;16677;52.224;7.484;2023-09-12T13:58:14;7.32;;;6.63;;
29776;SDS011;16677;52.224;7.484;2023-09-12T14:00:46;9.38;;;6.85;;
29776;SDS011;16677;52.224;7.484;2023-09-12T14:03:14;8.40;;;7.03;;
29776;SDS011;16677;52.224;7.484;2023-09-12T14:05:44;6.78;;;6.18;;
29776;SDS011;16677;52.224;7.484;2023-09-12T14:08:13;6.20;;;5.65;;
29776;SDS011;16677;52.224;7.484;2023-09-12T14:10:43;6.82;;;6.22;;
29776;SDS011;16677;52.224;7.484;2023-09-12T14:13:21;7.22;;;6.63;;
29776;SDS011;16677;52.224;7.484;2023-09-12T14:15:57;8.38;;;7.57;;
29776;SDS011;16677;52.224;7.484;2023-09-12T14:18:24;8.45;;;7.13;;
29776;SDS011;16677;52.224;7.484;2023-09-12T14:20:54;10.90;;;9.70;;
29776;SDS011;16677;52.224;7.484;2023-09-12T14:23:22;7.55;;;6.85;;
29776;SDS011;16677;52.224;7.484;2023-09-12T14:25:49;8.52;;;7.68;;
29776;SDS011;16677;52.224;7.484;2023-09-12T14:28:22;12.15;;;8.50;;
29776;SDS011;16677;52.224;7.484;2023-09-12T14:30:53;7.90;;;7.13;;
29776;SDS011;16677;52.224;7.484;2023-09-12T14:33:24;8.48;;;7.68;;
29776;SDS011;16677;52.224;7.484;2023-09-12T14:35:53;10.52;;;8.88;;
29776;SDS011;16677;52.224;7.484;2023-09-12T14:38:23;8.20;;;7.43;;
29776;SDS011;16677;52.224;7.484;2023-09-12T14:40:52;8.02;;;7.22;;
29776;SDS011;16677;52.224;7.484;2023-09-12T14:43:20;8.10;;;7.25;;
29776;SDS011;16677;52.224;7.484;2023-09-12T14:45:54;10.60;;;7.28;;
29776;SDS011;16677;52.224;7.484;2023-09-12T14:48:23;8.18;;;7.38;;
29776;SDS011;16677;52.224;7.484;2023-09-12T14:50:52;7.47;;;6.68;;
29776;SDS011;16677;52.224;7.484;2023-09-12T14:53:19;7.60;;;6.93;;
29776;SDS011;16677;52.224;7.484;2023-09-12T14:55:46;9.02;;;8.13;;
29776;SDS011;16677;52.224;7.484;2023-09-12T14:58:13;9.32;;;8.43;;
29776;SDS011;16677;52.224;7.484;2023-09-12T15:00:40;11.80;;;7.93;;
29776;SDS011;16677;52.224;7.484;2023-09-12T15:03:08;9.00;;;7.50;;
29776;SDS011;16677;52.224;7.484;2023-09-12T15:05:35;8.48;;;7.40;;
29776;SDS011;16677;52.224;7.484;2023-09-12T15:08:02;9.95;;;8.93;;
29776;SDS011;16677;52.224;7.484;2023-09-12T15:10:29;11.10;;;9.38;;
29776;SDS011;16677;52.224;7.484;2023-09-12T15:12:56;9.75;;;8.85;;
29776;SDS011;16677;52.224;7.484;2023-09-12T15:15:23;10.88;;;9.77;;
29776;SDS011;16677;52.224;7.484;2023-09-12T15:17:50;10.48;;;9.32;;
29776;SDS011;16677;52.224;7.484;2023-09-12T15:20:17;10.38;;;9.02;;
29776;SDS011;16677;52.224;7.484;2023-09-12T15:22:44;11.38;;;9.05;;
29776;SDS011;16677;52.224;7.484;2023-09-12T15:25:11;10.07;;;8.98;;
29776;SDS011;16677;52.224;7.484;2023-09-12T15:27:38;10.23;;;9.15;;
29776;SDS011;16677;52.224;7.484;2023-09-12T15:30:06;11.60;;;10.30;;
29776;SDS011;16677;52.224;7.484;2023-09-12T15:32:33;9.65;;;8.65;;
29776;SDS011;16677;52.224;7.484;2023-09-12T15:35:00;10.23;;;9.25;;
29776;SDS011;16677;52.224;7.484;2023-09-12T15:37:29;10.52;;;9.57;;
29776;SDS011;16677;52.224;7.484;2023-09-12T15:39:56;12.77;;;11.30;;
29776;SDS011;16677;52.224;7.484;2023-09-12T15:42:24;11.77;;;10.43;;
29776;SDS011;16677;52.224;7.484;2023-09-12T15:45:03;13.93;;;12.23;;
29776;SDS011;16677;52.224;7.484;2023-09-12T15:47:31;10.32;;;9.25;;
29776;SDS011;16677;52.224;7.484;2023-09-12T15:49:59;11.70;;;10.55;;
29776;SDS011;16677;52.224;7.484;2023-09-12T15:52:26;10.35;;;9.30;;
29776;SDS011;16677;52.224;7.484;2023-09-12T15:54:53;10.93;;;9.93;;
29776;SDS011;16677;52.224;7.484;2023-09-12T15:57:21;10.32;;;9.32;;
29776;SDS011;16677;52.224;7.484;2023-09-12T15:59:48;9.88;;;8.88;;
29776;SDS011;16677;52.224;7.484;2023-09-12T16:02:15;10.45;;;9.35;;
29776;SDS011;16677;52.224;7.484;2023-09-12T16:04:43;9.57;;;8.40;;
29776;SDS011;16677;52.224;7.484;2023-09-12T16:07:11;9.02;;;7.85;;
29776;SDS011;16677;52.224;7.484;2023-09-12T16:09:38;9.13;;;7.65;;
29776;SDS011;16677;52.224;7.484;2023-09-12T16:12:05;8.55;;;7.65;;
29776;SDS011;16677;52.224;7.484;2023-09-12T16:14:33;9.82;;;7.07;;
29776;SDS011;16677;52.224;7.484;2023-09-12T16:17:00;8.13;;;7.38;;
29776;SDS011;16677;52.224;7.484;2023-09-12T16:19:28;9.93;;;8.93;;
29776;SDS011;16677;52.224;7.484;2023-09-12T16:21:55;10.63;;;8.93;;
29776;SDS011;16677;52.224;7.484;2023-09-12T16:24:23;9.32;;;8.43;;
29776;SDS011;16677;52.224;7.484;2023-09-12T16:26:50;8.98;;;8.02;;
29776;SDS011;16677;52.224;7.484;2023-09-12T16:29:17;9.68;;;7.38;;
29776;SDS011;16677;52.224;7.484;2023-09-12T16:31:44;9.52;;;8.63;;
29776;SDS011;16677;52.224;7.484;2023-09-12T16:34:11;9.15;;;8.25;;
29776;SDS011;16677;52.224;7.484;2023-09-12T16:36:39;10.43;;;8.82;;
29776;SDS011;16677;52.224;7.484;2023-09-12T16:39:06;11.27;;;8.55;;
29776;SDS011;16677;52.224;7.484;2023-09-12T16:41:33;9.93;;;8.55;;
29776;SDS011;16677;52.224;7.484;2023-09-12T16:44:01;9.40;;;8.48;;
29776;SDS011;16677;52.224;7.484;2023-09-12T16:46:28;10.13;;;9.23;;
29776;SDS011;16677;52.224;7.484;2023-09-12T16:48:59;9.95;;;9.05;;
29776;SDS011;16677;52.224;7.484;2023-09-12T16:51:26;11.40;;;8.63;;
29776;SDS011;16677;52.224;7.484;2023-09-12T16:53:53;8.57;;;7.57;;
29776;SDS011;16677;52.224;7.484;2023-09-12T16:56:20;9.95;;;8.20;;
29776;SDS011;16677;52.224;7.484;2023-09-12T16:58:47;9.90;;;8.45;;
29776;SDS011;16677;52.224;7.484;2023-09-12T17:01:15;10.63;;;9.63;;
29776;SDS011;16677;52.224;7.484;2023-09-12T17:03:42;10.43;;;9.43;;
29776;SDS011;16677;52.224;7.484;2023-09-12T17:06:11;10.32;;;9.32;;
29776;SDS011;16677;52.224;7.484;2023-09-12T17:08:38;10.90;;;9.70;;
29776;SDS011;16677;52.224;7.484;2023-09-12T17:11:05;9.60;;;8.70;;
29776;SDS011;16677;52.224;7.484;2023-09-12T17:13:36;11.60;;;10.13;;
29776;SDS011;16677;52.224;7.484;2023-09-12T17:16:03;11.52;;;10.15;;
29776;SDS011;16677;52.224;7.484;2023-09-12T17:18:30;12.50;;;11.20;;
29776;SDS011;16677;52.224;7.484;2023-09-12T17:20:59;11.98;;;10.90;;
29776;SDS011;16677;52.224;7.484;2023-09-12T17:23:29;11.90;;;10.68;;
29776;SDS011;16677;52.224;7.484;2023-09-12T17:25:57;12.32;;;11.20;;
29776;SDS011;16677;52.224;7.484;2023-09-12T17:28:27;11.30;;;10.27;;
29776;SDS011;16677;52.224;7.484;2023-09-12T17:30:54;10.77;;;9.77;;
29776;SDS011;16677;52.224;7.484;2023-09-12T17:33:21;11.70;;;10.50;;
29776;SDS011;16677;52.224;7.484;2023-09-12T17:35:48;11.30;;;10.30;;
29776;SDS011;16677;52.224;7.484;2023-09-12T17:38:15;11.63;;;10.55;;
29776;SDS011;16677;52.224;7.484;2023-09-12T17:40:42;15.88;;;10.63;;
29776;SDS011;16677;52.224;7.484;2023-09-12T17:43:10;12.50;;;11.40;;
29776;SDS011;16677;52.224;7.484;2023-09-12T17:45:38;12.27;;;11.00;;
29776;SDS011;16677;52.224;7.484;2023-09-12T17:50:36;17.27;;;14.38;;
29776;SDS011;16677;52.224;7.484;2023-09-12T17:53:03;12.88;;;11.68;;
29776;SDS011;16677;52.224;7.484;2023-09-12T17:55:30;12.60;;;10.30;;
29776;SDS011;16677;52.224;7.484;2023-09-12T17:57:57;13.05;;;11.00;;
29776;SDS011;16677;52.224;7.484;2023-09-12T18:00:32;13.98;;;10.73;;
29776;SDS011;16677;52.224;7.484;2023-09-12T18:03:04;12.50;;;11.20;;
29776;SDS011;16677;52.224;7.484;2023-09-12T18:05:39;13.30;;;11.25;;
29776;SDS011;16677;52.224;7.484;2023-09-12T18:08:08;13.10;;;11.75;;
29776;SDS011;16677;52.224;7.484;2023-09-12T18:10:36;12.10;;;10.95;;
29776;SDS011;16677;52.224;7.484;2023-09-12T18:13:05;16.58;;;12.35;;
29776;SDS011;16677;52.224;7.484;2023-09-12T18:15:38;15.60;;;14.30;;
29776;SDS011;16677;52.224;7.484;2023-09-12T18:18:09;14.52;;;12.27;;
29776;SDS011;16677;52.224;7.484;2023-09-12T18:20:38;14.60;;;13.02;;
29776;SDS011;16677;52.224;7.484;2023-09-12T18:23:08;15.40;;;12.90;;
29776;SDS011;16677;52.224;7.484;2023-09-12T18:25:37;14.00;;;12.75;;
29776;SDS011;16677;52.224;7.484;2023-09-12T18:28:12;14.50;;;12.68;;
29776;SDS011;16677;52.224;7.484;2023-09-12T18:31:09;13.40;;;12.10;;
29776;SDS011;16677;52.224;7.484;2023-09-12T18:33:45;15.07;;;12.43;;
29776;SDS011;16677;52.224;7.484;2023-09-12T18:36:18;13.65;;;12.35;;
29776;SDS011;16677;52.224;7.484;2023-09-12T18:38:48;13.80;;;12.32;;
29776;SDS011;16677;52.224;7.484;2023-09-12T18:41:21;13.80;;;12.50;;
29776;SDS011;16677;52.224;7.484;2023-09-12T18:43:49;14.00;;;12.70;;
29776;SDS011;16677;52.224;7.484;2023-09-12T18:46:20;15.57;;;13.93;;
29776;SDS011;16677;52.224;7.484;2023-09-12T18:48:54;16.80;;;14.13;;
29776;SDS011;16677;52.224;7.484;2023-09-12T18:51:27;15.18;;;13.50;;
29776;SDS011;16677;52.224;7.484;2023-09-12T18:53:56;15.70;;;14.13;;
29776;SDS011;16677;52.224;7.484;2023-09-12T18:56:24;16.05;;;13.73;;
29776;SDS011;16677;52.224;7.484;2023-09-12T18:58:51;16.45;;;14.80;;
29776;SDS011;16677;52.224;7.484;2023-09-12T19:01:18;15.80;;;14.32;;
29776;SDS011;16677;52.224;7.484;2023-09-12T19:03:46;14.63;;;13.27;;
29776;SDS011;16677;52.224;7.484;2023-09-12T19:06:13;14.32;;;12.02;;
29776;SDS011;16677;52.224;7.484;2023-09-12T19:08:41;13.05;;;11.85;;
29776;SDS011;16677;52.224;7.484;2023-09-12T19:11:08;13.85;;;12.57;;
29776;SDS011;16677;52.224;7.484;2023-09-12T19:13:35;14.45;;;12.95;;
29776;SDS011;16677;52.224;7.484;2023-09-12T19:16:02;14.77;;;13.35;;
29776;SDS011;16677;52.224;7.484;2023-09-12T19:18:30;16.88;;;15.05;;
29776;SDS011;16677;52.224;7.484;2023-09-12T19:20:57;17.27;;;15.70;;
29776;SDS011;16677;52.224;7.484;2023-09-12T19:23:25;16.73;;;14.73;;
29776;SDS011;16677;52.224;7.484;2023-09-12T19:25:53;17.85;;;16.20;;
29776;SDS011;16677;52.224;7.484;2023-09-12T19:28:23;17.73;;;16.10;;
29776;SDS011;16677;52.224;7.484;2023-09-12T19:30:59;17.80;;;16.20;;
29776;SDS011;16677;52.224;7.484;2023-09-12T19:33:27;16.95;;;15.15;;
29776;SDS011;16677;52.224;7.484;2023-09-12T19:35:54;17.75;;;16.05;;
29776;SDS011;16677;52.224;7.484;2023-09-12T19:38:22;16.90;;;15.17;;
29776;SDS011;16677;52.224;7.484;2023-09-12T19:40:58;16.00;;;14.67;;
29776;SDS011;16677;52.224;7.484;2023-09-12T19:43:26;16.63;;;15.23;;
29776;SDS011;16677;52.224;7.484;2023-09-12T19:45:53;16.27;;;14.77;;
29776;SDS011;16677;52.224;7.484;2023-09-12T19:48:22;17.47;;;15.43;;
29776;SDS011;16677;52.224;7.484;2023-09-12T19:50:50;19.55;;;17.30;;
29776;SDS011;16677;52.224;7.484;2023-09-12T19:53:17;16.13;;;14.57;;
29776;SDS011;16677;52.224;7.484;2023-09-12T19:55:51;17.73;;;15.98;;
29776;SDS011;16677;52.224;7.484;2023-09-12T19:58:19;15.55;;;14.23;;
29776;SDS011;16677;52.224;7.484;2023-09-12T20:00:47;16.35;;;14.82;;
29776;SDS011;16677;52.224;7.484;2023-09-12T20:03:17;15.27;;;13.48;;
29776;SDS011;16677;52.224;7.484;2023-09-12T20:05:45;16.60;;;14.52;;
29776;SDS011;16677;52.224;7.484;2023-09-12T20:08:12;15.50;;;13.93;;
29776;SDS011;16677;52.224;7.484;2023-09-12T20:10:41;15.10;;;13.70;;
29776;SDS011;16677;52.224;7.484;2023-09-12T20:13:11;14.97;;;13.57;;
29776;SDS011;16677;52.224;7.484;2023-09-12T20:15:38;15.30;;;13.70;;
29776;SDS011;16677;52.224;7.484;2023-09-12T20:20:35;16.55;;;15.05;;
29776;SDS011;16677;52.224;7.484;2023-09-12T20:23:03;17.08;;;15.30;;
29776;SDS011;16677;52.224;7.484;2023-09-12T20:25:31;16.13;;;14.65;;
29776;SDS011;16677;52.224;7.484;2023-09-12T20:27:58;18.70;;;16.73;;
29776;SDS011;16677;52.224;7.484;2023-09-12T20:30:26;17.30;;;15.60;;
29776;SDS011;16677;52.224;7.484;2023-09-12T20:33:00;17.90;;;16.07;;
29776;SDS011;16677;52.224;7.484;2023-09-12T20:35:28;18.70;;;17.00;;
29776;SDS011;16677;52.224;7.484;2023-09-12T20:37:59;18.83;;;17.13;;
29776;SDS011;16677;52.224;7.484;2023-09-12T20:40:26;19.43;;;17.53;;
29776;SDS011;16677;52.224;7.484;2023-09-12T20:42:55;19.73;;;17.50;;
29776;SDS011;16677;52.224;7.484;2023-09-12T20:45:22;17.75;;;16.05;;
29776;SDS011;16677;52.224;7.484;2023-09-12T20:47:49;20.10;;;18.00;;
29776;SDS011;16677;52.224;7.484;2023-09-12T20:50:18;19.88;;;16.05;;
29776;SDS011;16677;52.224;7.484;2023-09-12T20:52:52;17.53;;;15.83;;
29776;SDS011;16677;52.224;7.484;2023-09-12T20:55:24;18.60;;;16.70;;
29776;SDS011;16677;52.224;7.484;2023-09-12T20:57:51;20.53;;;17.90;;
29776;SDS011;16677;52.224;7.484;2023-09-12T21:00:18;19.15;;;17.33;;
29776;SDS011;16677;52.224;7.484;2023-09-12T21:02:48;20.27;;;18.33;;
29776;SDS011;16677;52.224;7.484;2023-09-12T21:05:16;19.45;;;17.63;;
29776;SDS011;16677;52.224;7.484;2023-09-12T21:07:44;18.83;;;17.13;;
29776;SDS011;16677;52.224;7.484;2023-09-12T21:10:11;19.53;;;17.73;;
29776;SDS011;16677;52.224;7.484;2023-09-12T21:12:38;22.27;;;18.93;;
29776;SDS011;16677;52.224;7.484;2023-09-12T21:15:06;21.53;;;19.57;;
29776;SDS011;16677;52.224;7.484;2023-09-12T21:17:36;21.97;;;19.67;;
29776;SDS011;16677;52.224;7.484;2023-09-12T21:20:04;20.57;;;18.87;;
29776;SDS011;16677;52.224;7.484;2023-09-12T21:22:32;21.90;;;19.90;;
29776;SDS011;16677;52.224;7.484;2023-09-12T21:25:00;23.63;;;21.27;;
29776;SDS011;16677;52.224;7.484;2023-09-12T21:27:27;22.87;;;20.77;;
29776;SDS011;16677;52.224;7.484;2023-09-12T21:29:55;22.93;;;20.77;;
29776;SDS011;16677;52.224;7.484;2023-09-12T21:32:22;22.53;;;20.30;;
29776;SDS011;16677;52.224;7.484;2023-09-12T21:34:57;23.00;;;20.63;;
29776;SDS011;16677;52.224;7.484;2023-09-12T21:37:42;23.07;;;20.87;;
29776;SDS011;16677;52.224;7.484;2023-09-12T21:40:10;22.53;;;20.27;;
29776;SDS011;16677;52.224;7.484;2023-09-12T21:42:39;22.27;;;20.17;;
29776;SDS011;16677;52.224;7.484;2023-09-12T21:45:07;22.77;;;20.57;;
29776;SDS011;16677;52.224;7.484;2023-09-12T21:47:42;23.27;;;20.83;;
29776;SDS011;16677;52.224;7.484;2023-09-12T21:50:11;23.33;;;21.03;;
29776;SDS011;16677;52.224;7.484;2023-09-12T21:52:40;21.67;;;19.37;;
29776;SDS011;16677;52.224;7.484;2023-09-12T21:55:07;23.17;;;20.87;;
29776;SDS011;16677;52.224;7.484;2023-09-12T21:57:35;23.37;;;21.03;;
29776;SDS011;16677;52.224;7.484;2023-09-12T22:00:02;23.20;;;21.00;;
29776;SDS011;16677;52.224;7.484;2023-09-12T22:02:50;22.97;;;20.67;;
29776;SDS011;16677;52.224;7.484;2023-09-12T22:05:18;22.20;;;20.20;;
29776;SDS011;16677;52.224;7.484;2023-09-12T22:07:45;22.97;;;20.70;;
29776;SDS011;16677;52.224;7.484;2023-09-12T22:10:13;22.50;;;20.30;;
29776;SDS011;16677;52.224;7.484;2023-09-12T22:12:40;22.50;;;20.20;;
29776;SDS011;16677;52.224;7.484;2023-09-12T22:15:07;23.47;;;21.03;;
29776;SDS011;16677;52.224;7.484;2023-09-12T22:17:35;22.50;;;20.40;;
29776;SDS011;16677;52.224;7.484;2023-09-12T22:20:03;22.77;;;20.67;;
29776;SDS011;16677;52.224;7.484;2023-09-12T22:22:32;24.95;;;21.52;;
29776;SDS011;16677;52.224;7.484;2023-09-12T22:24:59;24.63;;;22.07;;
29776;SDS011;16677;52.224;7.484;2023-09-12T22:27:27;25.17;;;22.67;;
29776;SDS011;16677;52.224;7.484;2023-09-12T22:29:54;24.70;;;22.20;;
29776;SDS011;16677;52.224;7.484;2023-09-12T22:32:21;22.93;;;20.50;;
29776;SDS011;16677;52.224;7.484;2023-09-12T22:34:48;22.87;;;20.60;;
29776;SDS011;16677;52.224;7.484;2023-09-12T22:37:15;23.03;;;20.77;;
29776;SDS011;16677;52.224;7.484;2023-09-12T22:39:42;24.50;;;21.30;;
29776;SDS011;16677;52.224;7.484;2023-09-12T22:42:09;23.67;;;21.00;;
29776;SDS011;16677;52.224;7.484;2023-09-12T22:44:36;24.73;;;22.07;;
29776;SDS011;16677;52.224;7.484;2023-09-12T22:47:04;24.73;;;22.07;;
29776;SDS011;16677;52.224;7.484;2023-09-12T22:49:32;25.57;;;22.83;;
29776;SDS011;16677;52.224;7.484;2023-09-12T22:51:59;26.60;;;23.37;;
29776;SDS011;16677;52.224;7.484;2023-09-12T22:54:33;26.73;;;23.90;;
29776;SDS011;16677;52.224;7.484;2023-09-12T22:57:01;26.00;;;23.40;;
29776;SDS011;16677;52.224;7.484;2023-09-12T22:59:28;25.47;;;23.00;;